createdAt,value
2023-02-19T00:00:20.407Z,2.87
2023-02-19T00:02:48.230Z,3.27
2023-02-19T00:05:20.011Z,3.10
2023-02-19T00:07:51.594Z,3.10
2023-02-19T00:10:18.479Z,2.67
2023-02-19T00:12:47.890Z,2.80
2023-02-19T00:15:22.769Z,2.97
2023-02-19T00:17:54.148Z,2.97
2023-02-19T00:20:21.032Z,3.00
2023-02-19T00:22:50.562Z,2.80
2023-02-19T00:25:21.921Z,2.87
2023-02-19T00:31:52.159Z,3.10
2023-02-19T00:34:19.439Z,2.77
2023-02-19T00:36:46.339Z,2.90
2023-02-19T00:39:18.156Z,2.90
2023-02-19T00:41:50.532Z,2.83
2023-02-19T00:44:17.944Z,3.13
2023-02-19T00:46:50.476Z,3.23
2023-02-19T00:49:24.778Z,2.43
2023-02-19T00:51:57.108Z,2.97
2023-02-19T00:54:25.124Z,3.07
2023-02-19T00:56:52.096Z,3.00
2023-02-19T00:59:21.273Z,3.23
2023-02-19T01:01:49.555Z,3.43
2023-02-19T01:04:19.958Z,2.97
2023-02-19T01:06:48.732Z,2.70
2023-02-19T01:09:18.018Z,2.70
2023-02-19T01:11:46.942Z,3.27
2023-02-19T01:14:13.931Z,2.80
2023-02-19T01:16:42.898Z,2.87
2023-02-19T01:19:09.822Z,3.70
2023-02-19T01:21:39.969Z,3.40
2023-02-19T01:24:07.310Z,3.03
2023-02-19T01:26:38.693Z,2.97
2023-02-19T01:29:05.561Z,2.80
2023-02-19T01:31:35.161Z,2.70
2023-02-19T01:34:10.318Z,2.83
2023-02-19T01:36:42.055Z,2.77
2023-02-19T01:39:13.855Z,3.40
2023-02-19T01:41:44.310Z,2.83
2023-02-19T01:44:18.085Z,5.17
2023-02-19T01:46:48.429Z,2.57
2023-02-19T01:49:28.950Z,2.97
2023-02-19T01:52:21.148Z,2.77
2023-02-19T01:54:50.269Z,2.57
2023-02-19T01:57:26.664Z,5.30
2023-02-19T02:00:01.809Z,2.50
2023-02-19T02:02:43.370Z,2.80
2023-02-19T02:05:40.543Z,2.80
2023-02-19T02:08:27.073Z,2.77
2023-02-19T02:10:57.287Z,2.50
2023-02-19T02:13:26.965Z,2.40
2023-02-19T02:16:04.278Z,2.20
2023-02-19T02:18:40.215Z,2.33
2023-02-19T02:21:34.434Z,3.20
2023-02-19T02:24:49.265Z,2.33
2023-02-19T02:27:38.251Z,2.53
2023-02-19T02:30:24.419Z,3.00
2023-02-19T02:33:19.037Z,2.30
2023-02-19T02:36:12.865Z,2.30
2023-02-19T02:38:44.791Z,2.00
2023-02-19T02:41:16.520Z,2.47
2023-02-19T02:43:44.411Z,2.50
2023-02-19T02:46:26.309Z,2.07
2023-02-19T02:49:01.828Z,2.37
2023-02-19T02:51:52.606Z,2.63
2023-02-19T02:54:48.580Z,2.20
2023-02-19T02:57:19.959Z,2.47
2023-02-19T02:59:53.986Z,2.10
2023-02-19T03:02:31.410Z,1.80
2023-02-19T03:05:22.646Z,2.10
2023-02-19T03:08:09.965Z,2.43
2023-02-19T03:10:57.583Z,3.50
2023-02-19T03:13:55.676Z,2.03
2023-02-19T03:16:50.325Z,2.00
2023-02-19T03:19:27.364Z,2.13
2023-02-19T03:22:10.324Z,2.23
2023-02-19T03:25:09.662Z,1.80
2023-02-19T03:27:40.936Z,2.20
2023-02-19T03:30:24.100Z,2.47
2023-02-19T03:33:15.850Z,2.70
2023-02-19T03:35:55.640Z,3.03
2023-02-19T03:38:45.073Z,2.47
2023-02-19T03:41:33.642Z,2.83
2023-02-19T03:44:27.087Z,1.83
2023-02-19T03:47:09.331Z,2.37
2023-02-19T03:49:51.616Z,2.10
2023-02-19T03:52:46.995Z,2.47
2023-02-19T03:55:30.746Z,2.00
2023-02-19T03:58:28.939Z,2.30
2023-02-19T04:01:14.677Z,1.80
2023-02-19T04:04:15.627Z,3.87
2023-02-19T04:06:52.529Z,2.20
2023-02-19T04:09:22.469Z,2.00
2023-02-19T04:11:58.659Z,1.80
2023-02-19T04:14:35.145Z,2.10
2023-02-19T04:17:13.509Z,1.77
2023-02-19T04:19:43.125Z,2.53
2023-02-19T04:22:12.313Z,1.80
2023-02-19T04:24:49.190Z,2.27
2023-02-19T04:27:19.384Z,2.40
2023-02-19T04:29:48.621Z,1.93
2023-02-19T04:32:20.039Z,1.83
2023-02-19T04:34:46.945Z,2.50
2023-02-19T04:37:18.349Z,2.10
2023-02-19T04:39:51.987Z,1.87
2023-02-19T04:42:21.437Z,2.00
2023-02-19T04:44:50.572Z,2.27
2023-02-19T04:47:17.755Z,1.80
2023-02-19T04:49:45.338Z,1.67
2023-02-19T04:52:14.772Z,1.57
2023-02-19T04:54:46.327Z,1.80
2023-02-19T04:57:17.702Z,1.50
2023-02-19T04:59:48.142Z,1.77
2023-02-19T05:02:15.068Z,2.30
2023-02-19T05:04:46.810Z,1.37
2023-02-19T05:07:15.710Z,1.23
2023-02-19T05:09:44.752Z,1.40
2023-02-19T05:12:11.672Z,1.00
2023-02-19T05:14:43.248Z,1.13
2023-02-19T05:17:12.719Z,1.07
2023-02-19T05:19:41.753Z,1.30
2023-02-19T05:22:13.330Z,1.33
2023-02-19T05:24:42.577Z,1.07
2023-02-19T05:27:12.029Z,1.13
2023-02-19T05:29:38.915Z,1.13
2023-02-19T05:32:10.417Z,1.10
2023-02-19T05:34:42.037Z,1.83
2023-02-19T05:37:11.224Z,2.57
2023-02-19T05:39:38.203Z,1.23
2023-02-19T05:42:07.440Z,1.70
2023-02-19T05:44:38.962Z,1.10
2023-02-19T05:47:08.166Z,1.03
2023-02-19T05:49:34.971Z,0.80
2023-02-19T05:52:01.796Z,1.17
2023-02-19T05:54:32.172Z,0.80
2023-02-19T05:57:01.391Z,1.07
2023-02-19T05:59:30.777Z,1.00
2023-02-19T06:02:02.256Z,0.70
2023-02-19T06:04:31.382Z,1.03
2023-02-19T06:06:58.297Z,1.10
2023-02-19T06:09:27.820Z,0.83
2023-02-19T06:11:54.685Z,1.13
2023-02-19T06:14:23.633Z,1.00
2023-02-19T06:16:52.721Z,0.90
2023-02-19T06:19:24.251Z,0.90
2023-02-19T06:21:51.241Z,0.80
2023-02-19T06:24:18.071Z,0.90
2023-02-19T06:26:47.356Z,0.83
2023-02-19T06:29:17.084Z,1.43
2023-02-19T06:31:50.613Z,1.17
2023-02-19T06:34:17.624Z,1.13
2023-02-19T06:36:44.604Z,1.10
2023-02-19T06:39:13.847Z,1.10
2023-02-19T06:41:47.813Z,1.00
2023-02-19T06:44:17.043Z,1.00
2023-02-19T06:46:46.007Z,1.17
2023-02-19T06:49:15.338Z,0.97
2023-02-19T06:51:44.535Z,1.17
2023-02-19T06:54:11.414Z,1.13
2023-02-19T06:56:41.220Z,1.17
2023-02-19T06:59:12.904Z,1.03
2023-02-19T07:01:44.750Z,0.80
2023-02-19T07:04:12.231Z,1.30
2023-02-19T07:06:39.163Z,1.70
2023-02-19T07:09:09.728Z,1.17
2023-02-19T07:11:41.682Z,2.43
2023-02-19T07:14:15.627Z,1.03
2023-02-19T07:16:47.191Z,2.33
2023-02-19T07:19:21.542Z,1.43
2023-02-19T07:21:53.968Z,1.97
2023-02-19T07:24:21.509Z,1.47
2023-02-19T07:26:52.849Z,1.03
2023-02-19T07:29:19.717Z,1.50
2023-02-19T07:31:51.167Z,0.90
2023-02-19T07:34:20.877Z,1.20
2023-02-19T07:36:47.673Z,0.90
2023-02-19T07:39:16.863Z,1.50
2023-02-19T07:41:45.789Z,1.00
2023-02-19T07:44:27.910Z,1.10
2023-02-19T07:46:57.266Z,1.13
2023-02-19T07:49:26.524Z,1.10
2023-02-19T07:51:55.977Z,1.70
2023-02-19T07:54:25.103Z,0.97
2023-02-19T07:56:56.619Z,2.03
2023-02-19T07:59:30.162Z,1.80
2023-02-19T08:02:17.970Z,2.23
2023-02-19T08:04:47.685Z,1.00
2023-02-19T08:07:16.945Z,1.37
2023-02-19T08:09:43.766Z,1.23
2023-02-19T08:12:33.936Z,3.57
2023-02-19T08:15:05.672Z,1.27
2023-02-19T08:17:34.561Z,1.33
2023-02-19T08:20:06.618Z,1.93
2023-02-19T08:22:33.493Z,1.03
2023-02-19T08:25:00.320Z,0.90
2023-02-19T08:27:32.077Z,0.70
2023-02-19T08:29:59.086Z,1.27
2023-02-19T08:32:33.853Z,1.30
2023-02-19T08:35:03.326Z,2.03
2023-02-19T08:37:30.141Z,1.47
2023-02-19T08:39:57.037Z,2.47
2023-02-19T08:42:24.176Z,1.20
2023-02-19T08:44:56.266Z,2.10
2023-02-19T08:47:23.085Z,4.00
2023-02-19T08:49:52.143Z,1.23
2023-02-19T08:52:19.029Z,2.50
2023-02-19T08:54:50.491Z,1.30
2023-02-19T08:57:22.641Z,1.63
2023-02-19T08:59:49.498Z,1.77
2023-02-19T09:02:18.509Z,3.63
2023-02-19T09:04:47.954Z,1.87
2023-02-19T09:07:15.086Z,2.50
2023-02-19T09:09:42.102Z,2.90
2023-02-19T09:12:12.093Z,1.87
2023-02-19T09:14:41.698Z,1.60
2023-02-19T09:17:13.677Z,2.27
2023-02-19T09:19:43.609Z,2.60
2023-02-19T09:22:17.383Z,1.90
2023-02-19T09:24:48.572Z,1.40
2023-02-19T09:27:20.746Z,1.60
2023-02-19T09:29:47.801Z,1.83
2023-02-19T09:32:19.096Z,1.53
2023-02-19T09:34:46.314Z,1.83
2023-02-19T09:37:18.010Z,2.30
2023-02-19T09:39:47.230Z,1.50
2023-02-19T09:42:23.154Z,3.50
2023-02-19T09:44:58.129Z,2.07
2023-02-19T09:47:29.485Z,2.97
2023-02-19T09:50:06.318Z,3.47
2023-02-19T09:52:58.883Z,1.80
2023-02-19T09:55:38.955Z,1.90
2023-02-19T09:58:29.783Z,2.23
2023-02-19T10:01:02.287Z,2.33
2023-02-19T10:03:39.173Z,2.77
2023-02-19T10:06:12.361Z,1.47
2023-02-19T10:08:42.111Z,2.50
2023-02-19T10:11:13.000Z,1.30
2023-02-19T10:14:09.150Z,2.13
2023-02-19T10:16:42.308Z,1.90
2023-02-19T10:19:13.775Z,2.10
2023-02-19T10:21:42.770Z,3.33
2023-02-19T10:24:27.894Z,2.17
2023-02-19T10:26:57.906Z,2.00
2023-02-19T10:29:27.215Z,1.70
2023-02-19T10:32:18.705Z,3.27
2023-02-19T10:34:45.697Z,2.57
2023-02-19T10:37:18.594Z,1.93
2023-02-19T10:39:49.188Z,2.63
2023-02-19T10:42:25.961Z,3.33
2023-02-19T10:45:02.714Z,2.83
2023-02-19T10:47:33.119Z,4.67
2023-02-19T10:50:04.620Z,2.63
2023-02-19T10:52:36.590Z,1.80
2023-02-19T10:55:36.773Z,2.67
2023-02-19T10:58:42.315Z,3.13
2023-02-19T11:01:19.940Z,1.73
2023-02-19T11:04:10.688Z,2.80
2023-02-19T11:06:37.584Z,6.27
2023-02-19T11:09:22.139Z,2.90
2023-02-19T11:11:53.662Z,2.40
2023-02-19T11:14:28.461Z,3.73
2023-02-19T11:17:01.376Z,4.00
2023-02-19T11:19:42.806Z,1.93
2023-02-19T11:22:39.341Z,2.57
2023-02-19T11:25:17.173Z,2.20
2023-02-19T11:28:19.921Z,2.53
2023-02-19T11:30:54.109Z,3.33
2023-02-19T11:33:27.984Z,3.67
2023-02-19T11:36:20.022Z,2.87
2023-02-19T11:38:46.886Z,3.63
2023-02-19T11:41:24.114Z,3.90
2023-02-19T11:44:25.605Z,2.83
2023-02-19T11:47:29.208Z,2.90
2023-02-19T11:50:19.643Z,3.73
2023-02-19T11:53:13.253Z,2.57
2023-02-19T11:56:16.984Z,2.77
2023-02-19T11:59:04.833Z,3.17
2023-02-19T12:01:53.126Z,3.90
2023-02-19T12:05:02.089Z,4.33
2023-02-19T12:08:13.904Z,4.03
2023-02-19T12:11:14.022Z,2.20
2023-02-19T12:14:30.401Z,2.17
2023-02-19T12:17:33.133Z,2.47
2023-02-19T12:20:13.200Z,1.80
2023-02-19T12:23:50.790Z,3.30
2023-02-19T12:26:43.583Z,5.67
2023-02-19T12:29:49.663Z,2.03
2023-02-19T12:33:00.783Z,2.53
2023-02-19T12:35:38.128Z,3.20
2023-02-19T12:38:17.214Z,1.90
2023-02-19T12:40:50.634Z,2.50
2023-02-19T12:43:24.537Z,3.67
2023-02-19T12:46:02.621Z,3.00
2023-02-19T12:48:35.134Z,4.13
2023-02-19T12:51:26.288Z,2.20
2023-02-19T12:54:01.455Z,3.30
2023-02-19T12:56:47.418Z,2.20
2023-02-19T12:59:31.655Z,2.40
2023-02-19T13:02:39.158Z,5.53
2023-02-19T13:05:44.188Z,3.90
2023-02-19T13:08:26.834Z,2.40
2023-02-19T13:11:09.667Z,2.80
2023-02-19T13:13:47.896Z,3.50
2023-02-19T13:16:21.126Z,2.47
2023-02-19T13:19:05.109Z,2.50
2023-02-19T13:21:55.246Z,2.23
2023-02-19T13:24:33.547Z,2.33
2023-02-19T13:27:41.764Z,2.90
2023-02-19T13:30:48.468Z,2.97
2023-02-19T13:34:12.114Z,2.93
2023-02-19T13:36:42.094Z,3.50
2023-02-19T13:41:55.613Z,2.03
2023-02-19T13:44:29.317Z,3.17
2023-02-19T13:46:56.951Z,3.13
2023-02-19T13:49:33.745Z,4.10
2023-02-19T13:52:29.475Z,2.70
2023-02-19T13:55:46.989Z,3.00
2023-02-19T13:58:39.710Z,6.13
2023-02-19T14:01:13.919Z,2.63
2023-02-19T14:04:14.010Z,3.37
2023-02-19T14:07:05.564Z,1.87
2023-02-19T14:09:40.022Z,2.00
2023-02-19T14:12:10.177Z,1.57
2023-02-19T14:14:43.463Z,2.63
2023-02-19T14:17:10.201Z,1.80
2023-02-19T14:19:42.462Z,2.37
2023-02-19T14:22:49.472Z,1.67
2023-02-19T14:25:30.952Z,1.50
2023-02-19T14:28:45.853Z,1.53
2023-02-19T14:31:40.227Z,1.10
2023-02-19T14:34:22.770Z,2.37
2023-02-19T14:36:56.316Z,1.70
2023-02-19T14:39:46.936Z,1.30
2023-02-19T14:42:27.448Z,1.93
2023-02-19T14:45:06.269Z,1.83
2023-02-19T14:47:35.985Z,1.50
2023-02-19T14:50:34.948Z,1.90
2023-02-19T14:53:07.002Z,1.37
2023-02-19T14:55:42.686Z,1.70
2023-02-19T14:58:24.406Z,3.77
2023-02-19T15:00:51.425Z,1.43
2023-02-19T15:03:33.973Z,1.27
2023-02-19T15:06:19.418Z,1.30
2023-02-19T15:08:57.421Z,1.10
2023-02-19T15:11:29.855Z,1.23
2023-02-19T15:14:07.032Z,1.10
2023-02-19T15:16:36.548Z,1.57
2023-02-19T15:19:12.482Z,1.10
2023-02-19T15:21:47.939Z,3.80
2023-02-19T15:24:19.096Z,2.03
2023-02-19T15:26:51.654Z,1.60
2023-02-19T15:29:23.171Z,1.30
2023-02-19T15:32:02.174Z,1.40
2023-02-19T15:34:32.851Z,1.43
2023-02-19T15:37:13.009Z,1.77
2023-02-19T15:39:55.632Z,1.30
2023-02-19T15:42:31.075Z,0.90
2023-02-19T15:45:13.249Z,1.10
2023-02-19T15:47:53.464Z,2.20
2023-02-19T15:50:55.631Z,1.37
2023-02-19T15:53:29.587Z,1.20
2023-02-19T15:56:14.547Z,1.10
2023-02-19T15:59:13.661Z,2.30
2023-02-19T16:01:45.559Z,2.10
2023-02-19T16:04:17.312Z,1.07
2023-02-19T16:07:02.586Z,1.03
2023-02-19T16:09:39.473Z,1.10
2023-02-19T16:12:28.108Z,2.23
2023-02-19T16:14:58.582Z,1.13
2023-02-19T16:17:28.010Z,1.00
2023-02-19T16:20:03.364Z,1.10
2023-02-19T16:22:40.871Z,1.20
2023-02-19T16:25:37.357Z,1.10
2023-02-19T16:28:23.212Z,0.90
2023-02-19T16:31:06.809Z,1.00
2023-02-19T16:33:51.774Z,1.50
2023-02-19T16:36:41.861Z,1.30
2023-02-19T16:39:09.322Z,1.10
2023-02-19T16:41:48.411Z,1.20
2023-02-19T16:44:23.063Z,1.13
2023-02-19T16:46:54.670Z,1.23
2023-02-19T16:49:24.668Z,1.63
2023-02-19T16:51:52.240Z,1.50
2023-02-19T16:54:21.110Z,1.40
2023-02-19T16:56:50.099Z,3.33
2023-02-19T16:59:16.855Z,1.23
2023-02-19T17:01:46.315Z,1.37
2023-02-19T17:04:18.447Z,2.77
2023-02-19T17:06:49.141Z,1.53
2023-02-19T17:09:21.038Z,1.33
2023-02-19T17:11:50.465Z,1.60
2023-02-19T17:14:17.254Z,1.70
2023-02-19T17:16:44.126Z,1.97
2023-02-19T17:19:18.304Z,1.47
2023-02-19T17:21:46.944Z,2.17
2023-02-19T17:24:16.056Z,1.97
2023-02-19T17:26:45.427Z,1.20
2023-02-19T17:29:15.225Z,2.00
2023-02-19T17:31:47.766Z,1.80
2023-02-19T17:34:16.952Z,1.93
2023-02-19T17:36:45.492Z,2.27
2023-02-19T17:39:16.301Z,1.80
2023-02-19T17:41:43.450Z,2.47
2023-02-19T17:44:10.732Z,1.67
2023-02-19T17:46:39.877Z,1.90
2023-02-19T17:49:09.379Z,2.53
2023-02-19T17:51:36.580Z,2.03
2023-02-19T17:54:08.363Z,2.10
2023-02-19T17:56:35.795Z,2.83
2023-02-19T17:59:04.692Z,2.73
2023-02-19T18:01:33.607Z,1.47
2023-02-19T18:04:03.036Z,2.00
2023-02-19T18:06:30.430Z,1.70
2023-02-19T18:09:01.994Z,2.37
2023-02-19T18:11:30.969Z,2.10
2023-02-19T18:14:00.359Z,1.60
2023-02-19T18:16:31.745Z,1.70
2023-02-19T18:19:01.405Z,2.37
2023-02-19T18:21:30.767Z,2.47
2023-02-19T18:24:02.899Z,2.90
2023-02-19T18:26:29.822Z,2.03
2023-02-19T18:28:56.759Z,2.43
2023-02-19T18:31:23.708Z,1.80
2023-02-19T18:33:53.214Z,1.70
2023-02-19T18:36:20.119Z,2.03
2023-02-19T18:38:53.741Z,2.37
2023-02-19T18:41:24.362Z,1.97
2023-02-19T18:43:51.275Z,2.67
2023-02-19T18:46:21.198Z,2.07
2023-02-19T18:48:48.095Z,2.60
2023-02-19T18:51:17.051Z,2.23
2023-02-19T18:53:49.120Z,1.80
2023-02-19T18:56:16.550Z,2.23
2023-02-19T18:58:45.827Z,1.90
2023-02-19T19:01:13.938Z,1.60
2023-02-19T19:03:45.179Z,2.33
2023-02-19T19:06:12.042Z,2.63
2023-02-19T19:08:38.951Z,3.10
2023-02-19T19:11:09.223Z,1.90
2023-02-19T19:13:38.359Z,3.67
2023-02-19T19:16:05.425Z,2.20
2023-02-19T19:18:38.068Z,1.87
2023-02-19T19:21:09.645Z,2.20
2023-02-19T19:23:39.079Z,1.93
2023-02-19T19:26:08.523Z,2.53
2023-02-19T19:28:35.696Z,1.93
2023-02-19T19:31:05.569Z,3.30
2023-02-19T19:33:32.534Z,2.17
2023-02-19T19:36:04.259Z,2.67
2023-02-19T19:38:31.162Z,1.97
2023-02-19T19:40:58.017Z,2.50
2023-02-19T19:43:32.554Z,2.97
2023-02-19T19:46:08.518Z,2.43
2023-02-19T19:48:35.399Z,2.80
2023-02-19T19:51:04.944Z,2.40
2023-02-19T19:53:32.079Z,4.17
2023-02-19T19:56:01.106Z,2.40
2023-02-19T19:58:30.412Z,2.50
2023-02-19T20:01:02.087Z,2.40
2023-02-19T20:03:29.396Z,2.30
2023-02-19T20:05:57.180Z,2.67
2023-02-19T20:08:28.523Z,3.60
2023-02-19T20:10:57.511Z,2.30
2023-02-19T20:13:26.371Z,2.40
2023-02-19T20:15:55.426Z,2.00
2023-02-19T20:18:27.433Z,2.57
2023-02-19T20:20:54.326Z,2.37
2023-02-19T20:23:27.358Z,2.40
2023-02-19T20:25:58.888Z,3.07
2023-02-19T20:28:27.860Z,3.90
2023-02-19T20:30:54.961Z,2.90
2023-02-19T20:33:29.170Z,3.50
2023-02-19T20:35:56.971Z,2.47
2023-02-19T20:38:23.930Z,3.10
2023-02-19T20:40:53.319Z,2.67
2023-02-19T20:43:22.753Z,2.57
2023-02-19T20:45:54.027Z,2.63
2023-02-19T20:48:23.202Z,2.50
2023-02-19T20:50:50.068Z,3.07
2023-02-19T20:53:21.129Z,4.43
2023-02-19T20:55:47.996Z,2.77
2023-02-19T20:58:14.867Z,4.67
2023-02-19T21:00:41.742Z,2.50
2023-02-19T21:03:13.501Z,3.00
2023-02-19T21:05:42.922Z,2.90
2023-02-19T21:08:14.996Z,3.10
2023-02-19T21:10:42.025Z,2.83
2023-02-19T21:13:12.605Z,2.70
2023-02-19T21:15:42.039Z,3.27
2023-02-19T21:18:12.076Z,2.30
2023-02-19T21:20:38.904Z,2.93
2023-02-19T21:23:05.795Z,3.03
2023-02-19T21:25:34.716Z,3.00
2023-02-19T21:28:09.104Z,3.43
2023-02-19T21:31:41.689Z,3.07
2023-02-19T21:34:14.305Z,3.00
2023-02-19T21:36:46.767Z,7.00
2023-02-19T21:39:20.876Z,2.77
2023-02-19T21:41:50.314Z,3.20
2023-02-19T21:44:21.178Z,3.00
2023-02-19T21:46:48.597Z,3.00
2023-02-19T21:49:18.168Z,3.27
2023-02-19T21:51:50.188Z,2.63
2023-02-19T21:54:25.796Z,3.13
2023-02-19T21:56:53.963Z,3.90
2023-02-19T21:59:25.594Z,3.43
2023-02-19T22:01:57.024Z,3.00
2023-02-19T22:04:27.226Z,3.27
2023-02-19T22:07:01.803Z,3.37
2023-02-19T22:09:30.745Z,3.40
2023-02-19T22:11:57.524Z,4.47
2023-02-19T22:14:27.071Z,3.23
2023-02-19T22:16:53.962Z,4.03
2023-02-19T22:19:21.214Z,3.67
2023-02-19T22:21:50.325Z,3.93
2023-02-19T22:24:21.670Z,3.87
2023-02-19T22:26:55.953Z,4.03
2023-02-19T22:29:25.678Z,4.50
2023-02-19T22:31:52.941Z,4.00
2023-02-19T22:34:19.983Z,3.77
2023-02-19T22:36:54.205Z,4.83
2023-02-19T22:39:26.724Z,4.03
2023-02-19T22:41:58.392Z,4.77
2023-02-19T22:44:25.487Z,4.57
2023-02-19T22:46:56.926Z,4.13
2023-02-19T22:49:28.795Z,3.67
2023-02-19T22:52:03.968Z,4.13
2023-02-19T22:54:30.815Z,4.03
2023-02-19T22:57:00.251Z,4.63
2023-02-19T22:59:27.289Z,5.47
2023-02-19T23:01:54.593Z,4.03
2023-02-19T23:04:28.351Z,4.10
2023-02-19T23:06:55.326Z,3.90
2023-02-19T23:09:28.052Z,3.40
2023-02-19T23:12:10.248Z,4.07
2023-02-19T23:14:37.833Z,4.00
2023-02-19T23:17:09.246Z,4.37
2023-02-19T23:19:38.574Z,4.33
2023-02-19T23:22:08.245Z,5.70
2023-02-19T23:24:42.045Z,3.70
2023-02-19T23:27:13.619Z,3.60
2023-02-19T23:29:40.503Z,4.27
2023-02-19T23:32:12.118Z,3.53
2023-02-19T23:34:47.563Z,3.27
2023-02-19T23:37:15.324Z,3.73
2023-02-19T23:39:42.197Z,3.33
2023-02-19T23:42:20.758Z,5.13
2023-02-19T23:44:50.055Z,4.47
2023-02-19T23:47:20.086Z,3.40
2023-02-19T23:49:51.556Z,5.30
2023-02-19T23:52:20.739Z,3.63
2023-02-19T23:54:50.031Z,3.53
2023-02-19T23:57:19.358Z,4.70
2023-02-19T23:59:49.052Z,3.20
